KCTB

Cut Bank International Airport

Cut Bank, Montana, USA
METAR KCTB 210356Z AUTO 27004KT 6SM BR CLR 09/07 A3033 RMK AO2 SLP272 T00890072
Observed Flight Rules
Aug-21 @ 03:56 UTC (15 minutes ago) Visual Flight Rules
Wind Visibility Clouds Conditions
270° at 4 knots 6 miles
  • Clear skies
  • Mist
Temperatures Readings
Current 9°C / 48°F
Dewpoint 7°C / 45°F
Humidity 87%
Altimeter 30.33" Hg
Pressure 1027.2 hPa
Elevation 1175
METAR KCTB 210356Z AUTO 27004KT 6SM BR CLR 09/07 A3033 RMK AO2 SLP272 T00890072
Observed Flight Rules
Aug-21 @ 03:56 UTC
(15 minutes ago)
VFR
Wind Visibility
270° at 4 knots 6 miles
Clouds
  • Clear skies
Conditions
  • Mist
Temperature Dewpoint
9°C / 48°F 7°C / 45°F
Humidity Altimeter Pressure
87% 30.33" Hg 1027.2 hPa